Time;durP1;ratioP1;P1;durP2;ratioP2;P2;SDS_P1;SDS_P2;PMS_P1;PMS_P2;Temp;Humidity;BMP_temperature;BMP_pressure;BME280_temperature;BME280_humidity;BME280_pressure;Samples;Min_cycle;Max_cycle;Signal;HPM_P1;HPM_P2
2022/05/11 00:00:27;;;;;;;8.48;3.42;;;;;;;16.81;100.00;96428.09;5008444;28;20080;-72
2022/05/11 00:02:53;;;;;;;6.03;3.40;;;;;;;16.83;100.00;96434.03;5002262;28;20041;-72
2022/05/11 00:05:18;;;;;;;7.75;3.20;;;;;;;16.85;100.00;96440.75;5012839;28;20476;-73
2022/05/11 00:07:44;;;;;;;6.07;2.90;;;;;;;16.87;100.00;96427.75;5010863;28;20036;-71
2022/05/11 00:10:12;;;;;;;5.53;2.90;;;;;;;16.88;100.00;96429.34;5011702;28;20038;-71
2022/05/11 00:12:40;;;;;;;8.02;3.30;;;;;;;16.91;100.00;96420.69;5011449;28;20740;-73
2022/05/11 00:15:07;;;;;;;6.28;3.42;;;;;;;16.92;100.00;96422.28;5012138;28;20114;-71
2022/05/11 00:17:32;;;;;;;8.32;3.25;;;;;;;16.91;100.00;96417.97;5013083;28;20060;-73
2022/05/11 00:19:58;;;;;;;6.47;3.10;;;;;;;16.91;100.00;96409.88;5011104;28;20654;-71
2022/05/11 00:22:23;;;;;;;6.95;3.50;;;;;;;16.98;100.00;96420.34;4998764;28;20533;-72
2022/05/11 00:24:49;;;;;;;9.55;3.40;;;;;;;16.99;100.00;96427.34;5011306;28;20065;-73
2022/05/11 00:27:14;;;;;;;5.45;3.15;;;;;;;16.97;100.00;96424.94;5011288;28;20453;-71
2022/05/11 00:29:40;;;;;;;5.65;3.03;;;;;;;16.99;100.00;96422.75;5010966;28;20049;-71
2022/05/11 00:32:05;;;;;;;8.07;2.95;;;;;;;17.03;100.00;96424.84;5008946;28;20430;-71
2022/05/11 00:34:31;;;;;;;4.82;3.10;;;;;;;16.98;100.00;96413.03;5014473;28;20034;-73
2022/05/11 00:36:59;;;;;;;5.03;3.20;;;;;;;16.90;100.00;96419.06;4993616;28;20396;-72
2022/05/11 00:39:25;;;;;;;7.97;3.30;;;;;;;16.78;100.00;96420.56;5011591;28;20080;-72
2022/05/11 00:41:51;;;;;;;6.70;3.35;;;;;;;16.70;100.00;96416.63;5009642;28;20065;-72
2022/05/11 00:44:17;;;;;;;8.82;3.20;;;;;;;16.60;100.00;96411.31;4996752;28;20037;-73
2022/05/11 00:46:57;;;;;;;6.00;3.80;;;;;;;16.38;100.00;96418.00;5010015;28;20045;-71
2022/05/11 00:49:36;;;;;;;4.65;3.20;;;;;;;16.27;100.00;96404.91;5012626;28;20041;-72
2022/05/11 00:52:19;;;;;;;5.43;3.53;;;;;;;16.18;100.00;96412.81;5009167;28;20124;-73
2022/05/11 00:54:55;;;;;;;9.95;3.65;;;;;;;16.11;100.00;96407.78;5011954;28;20124;-71
2022/05/11 00:57:29;;;;;;;5.82;3.55;;;;;;;16.05;100.00;96406.19;5013070;28;20141;-71
2022/05/11 00:59:54;;;;;;;6.40;3.60;;;;;;;15.93;100.00;96407.66;5012336;28;20049;-71
2022/05/11 01:02:22;;;;;;;9.18;4.35;;;;;;;15.86;100.00;96405.28;5010966;28;20307;-72
2022/05/11 01:04:48;;;;;;;8.00;3.72;;;;;;;15.82;100.00;96402.34;5009439;28;20040;-73
2022/05/11 01:07:14;;;;;;;5.63;3.53;;;;;;;15.80;100.00;96401.03;5010899;28;20087;-71
2022/05/11 01:09:40;;;;;;;7.47;3.55;;;;;;;15.84;100.00;96393.97;5010348;28;20045;-72
2022/05/11 01:12:14;;;;;;;5.80;3.63;;;;;;;15.87;100.00;96390.69;5010864;28;20042;-73
2022/05/11 01:14:44;;;;;;;6.90;3.67;;;;;;;15.88;100.00;96393.13;5009661;28;20116;-72
2022/05/11 01:17:11;;;;;;;6.70;3.55;;;;;;;15.95;100.00;96397.38;4994610;28;20033;-72
2022/05/11 01:19:40;;;;;;;9.52;3.40;;;;;;;15.96;100.00;96397.13;5011764;28;20029;-72
2022/05/11 01:22:13;;;;;;;8.80;4.13;;;;;;;15.95;100.00;96389.28;5010575;28;20037;-71
2022/05/11 01:24:42;;;;;;;7.18;3.50;;;;;;;15.91;100.00;96389.06;5009696;28;20120;-71
2022/05/11 01:27:26;;;;;;;8.38;3.00;;;;;;;15.81;100.00;96389.97;5009425;28;20145;-72
2022/05/11 01:29:53;;;;;;;8.25;3.53;;;;;;;15.77;100.00;96393.50;5010350;28;20536;-72
2022/05/11 01:32:20;;;;;;;8.48;3.20;;;;;;;15.76;100.00;96386.50;5010026;28;20115;-72
2022/05/11 01:34:48;;;;;;;5.53;3.10;;;;;;;15.76;100.00;96390.00;5011739;28;20041;-71
2022/05/11 01:37:14;;;;;;;9.02;4.15;;;;;;;15.75;100.00;96385.69;5008127;28;20074;-71
2022/05/11 01:39:40;;;;;;;8.77;3.63;;;;;;;15.77;100.00;96383.50;5011120;28;20064;-72
2022/05/11 01:42:05;;;;;;;6.97;3.40;;;;;;;15.71;100.00;96384.63;5008833;28;20048;-72
2022/05/11 01:44:31;;;;;;;7.70;3.60;;;;;;;15.77;100.00;96382.69;4998332;28;20363;-71
2022/05/11 01:46:59;;;;;;;5.97;3.38;;;;;;;15.71;100.00;96379.22;5009352;28;20509;-72
2022/05/11 01:49:27;;;;;;;7.30;3.20;;;;;;;15.68;100.00;96384.41;5008333;28;20049;-71
2022/05/11 01:51:53;;;;;;;7.95;3.60;;;;;;;15.65;100.00;96374.19;5010145;28;20038;-72
2022/05/11 01:54:19;;;;;;;9.40;3.28;;;;;;;15.67;100.00;96377.41;5010469;28;20484;-72
2022/05/11 01:56:45;;;;;;;7.63;3.58;;;;;;;15.60;100.00;96366.91;5011129;28;20099;-71
2022/05/11 01:59:10;;;;;;;13.57;3.35;;;;;;;15.51;100.00;96368.59;5008798;28;20366;-71
2022/05/11 02:01:40;;;;;;;8.60;3.80;;;;;;;15.50;100.00;96367.00;5007375;28;20038;-71
2022/05/11 02:07:49;;;;;;;5.07;3.30;;;;;;;15.47;100.00;96368.34;5010491;28;20042;-72
2022/05/11 02:09:35;;;;;;;7.15;3.22;;;;;;;15.36;100.00;96366.00;5010406;28;20484;-72
2022/05/11 02:12:01;;;;;;;5.57;3.25;;;;;;;15.22;100.00;96350.47;5008816;28;20104;-72
2022/05/11 02:14:26;;;;;;;8.23;3.20;;;;;;;15.23;100.00;96367.44;5010973;28;20414;-71
2022/05/11 02:16:52;;;;;;;4.75;3.40;;;;;;;15.21;100.00;96353.44;5008889;28;20097;-73
2022/05/11 02:19:17;;;;;;;6.95;3.40;;;;;;;15.17;100.00;96358.56;5008283;28;20124;-71
2022/05/11 02:21:43;;;;;;;6.15;3.70;;;;;;;15.18;100.00;96354.03;5008848;28;20511;-71
2022/05/11 02:24:08;;;;;;;6.45;3.83;;;;;;;15.18;100.00;96354.03;5009296;28;20124;-72
2022/05/11 02:26:34;;;;;;;6.32;3.60;;;;;;;15.12;100.00;96355.13;5008299;28;20180;-71
2022/05/11 02:28:59;;;;;;;7.47;3.40;;;;;;;15.07;100.00;96355.97;4991439;28;20038;-72
2022/05/11 02:31:24;;;;;;;8.90;3.42;;;;;;;15.02;100.00;96358.69;5005739;28;20033;-71
2022/05/11 02:33:50;;;;;;;5.07;3.25;;;;;;;14.99;100.00;96361.94;5010999;28;20041;-72
2022/05/11 02:36:15;;;;;;;5.25;3.50;;;;;;;14.96;100.00;96351.72;5007011;28;20045;-72
2022/05/11 02:38:42;;;;;;;11.13;3.42;;;;;;;14.92;100.00;96351.47;5009629;28;20045;-71
2022/05/11 02:41:08;;;;;;;6.45;3.50;;;;;;;14.87;100.00;96351.50;5007802;28;20038;-73
2022/05/11 02:43:33;;;;;;;4.63;3.30;;;;;;;14.85;100.00;96350.16;5010058;28;20548;-71
2022/05/11 02:46:00;;;;;;;7.88;3.63;;;;;;;14.87;100.00;96353.41;5008032;28;20041;-73
2022/05/11 02:48:26;;;;;;;6.60;3.78;;;;;;;14.88;100.00;96347.72;5009298;28;20084;-72
2022/05/11 02:50:57;;;;;;;9.23;3.88;;;;;;;14.86;100.00;96346.38;5007528;28;20283;-71
2022/05/11 02:53:26;;;;;;;7.95;3.70;;;;;;;14.81;100.00;96349.13;5010662;28;20128;-72
2022/05/11 02:55:53;;;;;;;6.65;3.50;;;;;;;14.79;100.00;96345.91;5008345;28;20404;-71
2022/05/11 02:58:25;;;;;;;6.10;3.65;;;;;;;14.76;100.00;96342.66;5010888;28;20045;-71
2022/05/11 03:00:52;;;;;;;6.45;3.63;;;;;;;14.73;100.00;96342.44;5008696;28;20385;-71
2022/05/11 03:03:20;;;;;;;11.07;3.53;;;;;;;14.72;100.00;96338.13;5010510;28;20045;-71
2022/05/11 03:05:47;;;;;;;5.75;3.78;;;;;;;14.72;100.00;96332.75;5006740;28;20040;-72
2022/05/11 03:08:13;;;;;;;6.20;3.90;;;;;;;14.67;100.00;96330.06;5008514;28;20046;-71
2022/05/11 03:10:40;;;;;;;7.18;3.75;;;;;;;14.62;100.00;96338.16;5008745;28;20487;-71
2022/05/11 03:13:06;;;;;;;6.25;3.20;;;;;;;14.62;100.00;96328.19;5008715;28;20056;-71
2022/05/11 03:15:33;;;;;;;8.10;3.67;;;;;;;14.59;100.00;96319.88;5008500;28;20286;-71
2022/05/11 03:17:58;;;;;;;8.00;3.63;;;;;;;14.57;100.00;96325.53;5008424;28;20046;-72
2022/05/11 03:20:26;;;;;;;8.80;3.90;;;;;;;14.56;100.00;96323.94;5008488;28;20470;-72
2022/05/11 03:22:51;;;;;;;6.57;3.33;;;;;;;14.54;100.00;96327.97;5013122;28;20066;-71
2022/05/11 03:25:18;;;;;;;8.23;3.53;;;;;;;14.53;100.00;96326.34;5010792;28;20060;-71
2022/05/11 03:27:43;;;;;;;6.68;3.70;;;;;;;14.49;100.00;96320.72;5013616;28;20472;-71
2022/05/11 03:30:10;;;;;;;5.97;3.33;;;;;;;14.44;100.00;96320.72;5011764;28;20057;-72
2022/05/11 03:35:20;;;;;;;8.32;3.60;;;;;;;14.47;100.00;96314.78;5011906;28;20116;-71
2022/05/11 03:37:45;;;;;;;4.55;3.25;;;;;;;14.48;100.00;96319.13;5013135;28;20140;-71
2022/05/11 03:40:12;;;;;;;6.20;3.38;;;;;;;14.46;100.00;96315.88;5012020;28;20367;-71
2022/05/11 03:42:39;;;;;;;6.22;3.30;;;;;;;14.48;100.00;96316.44;5011891;28;20080;-71
2022/05/11 03:45:16;;;;;;;7.53;3.35;;;;;;;14.52;100.00;96322.84;5008991;28;20047;-72
2022/05/11 03:47:41;;;;;;;7.78;3.58;;;;;;;14.49;100.00;96316.16;5010428;28;20142;-71
2022/05/11 03:50:08;;;;;;;6.93;3.33;;;;;;;14.52;100.00;96300.50;5012510;28;20552;-71
2022/05/11 03:52:35;;;;;;;7.43;3.60;;;;;;;14.57;100.00;96309.38;5012997;28;20164;-71
2022/05/11 03:55:01;;;;;;;8.88;3.40;;;;;;;14.58;100.00;96302.09;5010870;28;20052;-70
2022/05/11 03:57:26;;;;;;;5.00;3.67;;;;;;;14.59;100.00;96299.13;5011117;28;20088;-72
2022/05/11 03:59:51;;;;;;;7.30;3.30;;;;;;;14.61;100.00;96302.34;5011732;28;20045;-72
2022/05/11 04:02:18;;;;;;;5.90;3.75;;;;;;;14.60;100.00;96303.44;5009842;28;20375;-72
2022/05/11 04:04:43;;;;;;;4.90;3.20;;;;;;;14.65;100.00;96295.34;5012727;28;20068;-71
2022/05/11 04:07:09;;;;;;;7.05;3.60;;;;;;;14.68;100.00;96302.03;5010902;28;20038;-71
2022/05/11 04:09:34;;;;;;;5.07;3.45;;;;;;;14.68;100.00;96289.38;5011093;28;20033;-71
2022/05/11 04:12:00;;;;;;;7.53;3.70;;;;;;;14.69;100.00;96292.88;5012698;28;20092;-71
2022/05/11 04:14:25;;;;;;;5.38;3.17;;;;;;;14.69;100.00;96284.81;5012916;28;20091;-72
2022/05/11 04:16:56;;;;;;;6.15;3.58;;;;;;;14.75;100.00;96297.16;5009622;28;20048;-71
2022/05/11 04:19:21;;;;;;;8.18;3.38;;;;;;;14.78;100.00;96288.50;5011459;28;20060;-72
2022/05/11 04:21:47;;;;;;;7.10;3.40;;;;;;;14.80;100.00;96294.44;5011973;28;20132;-71
2022/05/11 04:24:12;;;;;;;6.40;3.20;;;;;;;14.79;100.00;96292.03;4995835;28;20123;-71
2022/05/11 04:26:38;;;;;;;6.43;3.45;;;;;;;14.80;100.00;96293.63;5010815;28;20485;-72
2022/05/11 04:29:04;;;;;;;9.20;3.33;;;;;;;14.86;100.00;96289.81;5011977;28;20053;-71
2022/05/11 04:31:29;;;;;;;5.80;3.40;;;;;;;14.93;100.00;96293.81;4995687;28;20038;-71
2022/05/11 04:33:55;;;;;;;6.07;3.17;;;;;;;14.92;100.00;96286.00;5011797;28;20049;-71
2022/05/11 04:36:21;;;;;;;8.85;3.28;;;;;;;14.91;100.00;96295.97;5010325;28;20030;-71
2022/05/11 04:38:46;;;;;;;4.20;3.05;;;;;;;14.96;100.00;96295.16;5011695;28;20383;-71
2022/05/11 04:41:12;;;;;;;5.25;3.03;;;;;;;14.99;100.00;96286.50;5009855;28;20041;-72
2022/05/11 04:43:37;;;;;;;8.95;4.65;;;;;;;14.96;100.00;96289.75;5011148;28;21364;-71
2022/05/11 04:46:03;;;;;;;6.68;3.40;;;;;;;14.97;100.00;96283.28;5008597;28;20048;-70
2022/05/11 04:48:29;;;;;;;4.75;3.30;;;;;;;14.94;100.00;96292.75;5010834;28;20033;-72
2022/05/11 04:51:01;;;;;;;5.75;3.13;;;;;;;14.99;100.00;96303.47;5010918;28;20401;-71
2022/05/11 04:53:27;;;;;;;8.98;3.25;;;;;;;15.01;100.00;96295.09;5011730;28;20489;-72
2022/05/11 04:55:52;;;;;;;6.78;3.00;;;;;;;15.06;100.00;96297.75;5010106;28;20044;-72
2022/05/11 04:58:17;;;;;;;6.78;2.70;;;;;;;15.13;100.00;96295.56;5001733;28;20582;-72
2022/05/11 05:00:43;;;;;;;6.70;3.80;;;;;;;15.17;100.00;96290.41;5007620;28;20050;-71
2022/05/11 05:03:10;;;;;;;5.20;3.30;;;;;;;15.18;100.00;96300.13;5012883;28;20046;-72
2022/05/11 05:05:36;;;;;;;6.20;3.53;;;;;;;15.19;100.00;96293.63;5010723;28;20061;-71
2022/05/11 05:08:01;;;;;;;4.30;3.20;;;;;;;15.23;100.00;96294.66;4996884;28;20049;-71
2022/05/11 05:10:28;;;;;;;7.00;3.72;;;;;;;15.28;100.00;96294.63;5010199;28;20636;-71
2022/05/11 05:12:53;;;;;;;7.35;3.63;;;;;;;15.34;100.00;96298.91;5010086;28;20484;-71
2022/05/11 05:15:19;;;;;;;4.93;2.50;;;;;;;15.39;100.00;96301.53;5009431;28;20041;-71
2022/05/11 05:17:45;;;;;;;6.45;3.40;;;;;;;15.44;100.00;96289.91;5010088;28;20098;-71
2022/05/11 05:20:13;;;;;;;7.28;3.53;;;;;;;15.47;100.00;96294.72;5009470;28;20056;-72
2022/05/11 05:22:39;;;;;;;6.18;2.97;;;;;;;15.51;100.00;96301.19;5010944;28;20148;-71
2022/05/11 05:25:05;;;;;;;9.48;3.45;;;;;;;15.57;100.00;96291.97;5009853;28;20037;-72
2022/05/11 05:27:30;;;;;;;7.07;3.85;;;;;;;15.63;100.00;96301.63;4993505;28;20048;-72
2022/05/11 05:32:42;;;;;;;7.82;3.38;;;;;;;15.71;100.00;96295.63;5010759;28;20405;-71
2022/05/11 05:35:10;;;;;;;4.85;3.03;;;;;;;15.80;100.00;96303.91;5011978;28;20037;-71
2022/05/11 05:37:38;;;;;;;6.05;3.45;;;;;;;15.85;100.00;96312.75;5011531;28;20033;-72
2022/05/11 05:40:05;;;;;;;7.00;3.80;;;;;;;15.90;100.00;96301.09;4999093;28;20598;-71
2022/05/11 05:42:31;;;;;;;7.72;3.38;;;;;;;15.96;100.00;96304.56;5010595;28;20447;-72
2022/05/11 05:44:56;;;;;;;7.50;4.10;;;;;;;16.02;100.00;96312.28;5006283;28;20054;-71
2022/05/11 05:47:22;;;;;;;6.47;3.30;;;;;;;16.06;100.00;96301.75;5009464;28;20535;-72
2022/05/11 05:49:48;;;;;;;7.25;3.33;;;;;;;16.11;100.00;96305.19;5008783;28;20363;-72
2022/05/11 05:52:21;;;;;;;9.20;3.00;;;;;;;16.13;100.00;96305.72;5006216;28;20223;-73
2022/05/11 05:54:47;;;;;;;7.63;3.17;;;;;;;16.15;100.00;96306.22;5011397;28;20491;-71
2022/05/11 05:57:14;;;;;;;5.25;3.10;;;;;;;16.23;100.00;96312.06;5009403;28;20029;-71
2022/05/11 05:59:40;;;;;;;6.30;3.30;;;;;;;16.23;100.00;96309.38;5008566;28;20054;-71
2022/05/11 06:02:12;;;;;;;5.65;3.00;;;;;;;16.30;100.00;96318.75;5008546;28;20064;-71
2022/05/11 06:04:49;;;;;;;5.00;3.05;;;;;;;16.29;100.00;96319.84;4998380;28;20073;-72
2022/05/11 06:07:16;;;;;;;7.00;3.53;;;;;;;16.40;100.00;96304.31;5006984;28;20037;-71
2022/05/11 06:09:42;;;;;;;5.32;3.45;;;;;;;16.41;100.00;96317.50;5010614;28;20041;-71
2022/05/11 06:12:11;;;;;;;6.80;3.40;;;;;;;16.45;100.00;96301.56;5010221;28;20054;-71
2022/05/11 06:14:38;;;;;;;12.35;3.85;;;;;;;16.50;100.00;96309.59;5009352;28;20034;-72
2022/05/11 06:17:11;;;;;;;9.43;3.28;;;;;;;16.55;100.00;96314.91;5005925;28;20436;-71
2022/05/11 06:19:38;;;;;;;5.85;3.38;;;;;;;16.57;100.00;96296.53;5006718;28;20089;-72
2022/05/11 06:22:04;;;;;;;8.48;3.38;;;;;;;16.69;100.00;96317.75;5009446;28;20451;-72
2022/05/11 06:24:30;;;;;;;8.57;3.22;;;;;;;16.75;100.00;96316.59;5008965;28;20041;-72
2022/05/11 06:26:56;;;;;;;8.07;3.40;;;;;;;16.78;100.00;96316.00;5008753;28;20470;-73
2022/05/11 06:29:22;;;;;;;8.18;3.95;;;;;;;16.88;100.00;96317.75;5005864;28;21129;-71
2022/05/11 06:31:47;;;;;;;6.45;3.67;;;;;;;16.97;100.00;96319.53;5007014;28;20455;-72
2022/05/11 06:34:13;;;;;;;9.45;3.88;;;;;;;16.97;100.00;96319.53;5008770;28;20393;-72
2022/05/11 06:36:38;;;;;;;6.82;2.90;;;;;;;16.93;100.00;96307.69;5008583;28;20105;-71
2022/05/11 06:39:04;;;;;;;8.45;3.78;;;;;;;16.93;100.00;96309.59;5006838;28;20084;-72
2022/05/11 06:41:30;;;;;;;7.13;3.97;;;;;;;16.94;100.00;96311.19;5007299;28;20088;-71
2022/05/11 06:43:55;;;;;;;6.90;3.53;;;;;;;16.98;100.00;96301.41;5008551;28;20605;-71
2022/05/11 06:46:22;;;;;;;5.00;3.47;;;;;;;17.05;100.00;96306.44;5007665;28;20547;-72
2022/05/11 06:48:48;;;;;;;6.15;3.55;;;;;;;17.06;100.00;96305.34;5009639;28;20401;-71
2022/05/11 06:51:15;;;;;;;5.18;3.40;;;;;;;17.16;100.00;96303.28;5008849;28;20425;-71
2022/05/11 06:59:22;;;;;;;8.00;3.33;;;;;;;17.19;100.00;96301.88;5009421;28;20164;-73
2022/05/11 07:01:52;;;;;;;5.95;3.45;;;;;;;17.20;100.00;96304.31;5010328;28;20072;-72
2022/05/11 07:04:20;;;;;;;6.15;3.13;;;;;;;17.22;100.00;96293.22;5010533;28;20594;-71
2022/05/11 07:06:46;;;;;;;7.93;3.40;;;;;;;17.29;100.00;96293.63;5007309;28;20045;-72
2022/05/11 07:09:11;;;;;;;5.65;3.80;;;;;;;17.37;100.00;96294.88;5009928;28;20045;-71
2022/05/11 07:14:22;;;;;;;10.70;3.60;;;;;;;17.42;100.00;96292.84;5009633;28;20051;-73
2022/05/11 07:16:48;;;;;;;7.30;3.60;;;;;;;17.49;100.00;96296.00;5009134;28;20038;-72
2022/05/11 07:19:13;;;;;;;7.60;3.42;;;;;;;17.53;100.00;96302.44;5007205;28;20485;-72
2022/05/11 07:21:39;;;;;;;7.60;4.03;;;;;;;17.60;100.00;96295.84;5006981;28;20065;-72
2022/05/11 07:24:05;;;;;;;11.70;3.85;;;;;;;17.65;100.00;96287.63;5007528;28;20073;-73
2022/05/11 07:26:30;;;;;;;7.28;4.10;;;;;;;17.61;100.00;96283.91;4976623;28;20046;-73
2022/05/11 07:28:56;;;;;;;12.65;4.13;;;;;;;17.65;100.00;96279.50;5011158;28;20387;-72
2022/05/11 07:31:22;;;;;;;13.13;4.10;;;;;;;17.64;100.00;96276.00;5010701;28;20042;-72
2022/05/11 07:33:47;;;;;;;10.45;3.72;;;;;;;17.76;100.00;96272.84;5010600;28;20069;-72
2022/05/11 07:36:13;;;;;;;16.75;3.85;;;;;;;17.77;100.00;96282.56;5007482;28;20091;-71
2022/05/11 07:38:40;;;;;;;12.25;3.90;;;;;;;17.83;100.00;96292.22;4993933;28;20368;-72
2022/05/11 07:41:06;;;;;;;11.27;3.60;;;;;;;17.86;100.00;96291.59;5009905;28;20585;-72
2022/05/11 07:43:32;;;;;;;12.55;3.92;;;;;;;17.88;100.00;96286.69;5007982;28;20033;-72
2022/05/11 07:45:57;;;;;;;11.32;4.60;;;;;;;17.98;100.00;96291.13;5006447;28;20068;-73
2022/05/11 07:48:23;;;;;;;10.40;3.67;;;;;;;18.12;100.00;96285.69;4990504;28;20134;-73
2022/05/11 07:50:49;;;;;;;12.25;3.90;;;;;;;18.29;100.00;96281.31;5007863;28;20056;-72
2022/05/11 07:53:15;;;;;;;10.15;3.97;;;;;;;18.33;100.00;96273.38;5007294;28;20084;-72
2022/05/11 07:55:41;;;;;;;11.65;4.28;;;;;;;18.45;100.00;96279.09;5006423;28;20472;-73
2022/05/11 08:00:54;;;;;;;14.95;4.20;;;;;;;18.64;100.00;96274.31;5009087;28;20128;-72
2022/05/11 08:03:19;;;;;;;9.68;4.30;;;;;;;18.73;100.00;96260.09;5008842;28;20049;-72
2022/05/11 08:05:45;;;;;;;8.95;4.10;;;;;;;18.80;100.00;96271.31;5007762;28;20065;-73
2022/05/11 08:08:10;;;;;;;12.38;4.00;;;;;;;18.88;100.00;96276.00;5006561;28;20038;-72
2022/05/11 08:10:39;;;;;;;7.15;3.35;;;;;;;18.99;100.00;96271.13;5012540;28;20366;-72
2022/05/11 08:13:07;;;;;;;8.98;4.07;;;;;;;19.11;100.00;96274.91;5012851;28;20088;-72
2022/05/11 08:15:36;;;;;;;9.80;3.97;;;;;;;19.09;100.00;96268.22;5011894;28;20119;-72
2022/05/11 08:18:04;;;;;;;6.72;3.28;;;;;;;19.11;100.00;96269.50;5012208;28;20049;-72
2022/05/11 08:20:34;;;;;;;9.77;3.45;;;;;;;19.15;100.00;96273.22;5009802;28;20041;-71
2022/05/11 08:23:02;;;;;;;9.98;3.83;;;;;;;19.00;100.00;96259.22;5011812;28;20061;-72
2022/05/11 08:25:30;;;;;;;11.23;4.22;;;;;;;19.16;100.00;96269.38;5009717;28;20124;-71
2022/05/11 08:27:56;;;;;;;9.88;4.32;;;;;;;19.26;100.00;96264.81;5011177;28;20434;-72
2022/05/11 08:33:20;;;;;;;7.70;3.95;;;;;;;19.40;100.00;96258.22;5012588;28;20046;-73
2022/05/11 08:35:49;;;;;;;7.82;3.80;;;;;;;19.33;100.00;96262.47;5014614;28;20047;-72
2022/05/11 08:38:18;;;;;;;7.03;3.97;;;;;;;19.47;100.00;96260.50;4979208;28;20151;-72
2022/05/11 08:41:10;;;;;;;6.63;4.10;;;;;;;19.54;100.00;96263.59;5010635;28;20049;-72
2022/05/11 08:43:38;;;;;;;10.00;4.55;;;;;;;19.57;100.00;96271.13;5007210;28;20687;-73
2022/05/11 08:46:25;;;;;;;7.10;4.43;;;;;;;19.56;100.00;96260.56;5010186;28;20048;-72
2022/05/11 08:49:17;;;;;;;7.43;3.55;;;;;;;19.53;100.00;96264.66;5013486;28;20489;-72
2022/05/11 08:51:53;;;;;;;10.27;3.63;;;;;;;19.71;100.00;96262.91;5007956;28;20099;-71
2022/05/11 08:54:47;;;;;;;11.52;3.80;;;;;;;19.83;100.00;96259.59;5008637;28;20042;-73
2022/05/11 08:57:17;;;;;;;10.50;4.20;;;;;;;19.86;100.00;96264.44;4992682;28;20412;-71
2022/05/11 08:59:44;;;;;;;7.55;4.00;;;;;;;20.04;100.00;96268.81;5009650;28;20045;-73
2022/05/11 09:02:21;;;;;;;9.82;4.30;;;;;;;20.21;100.00;96260.72;5008281;28;20504;-72
2022/05/11 09:04:49;;;;;;;14.15;3.97;;;;;;;20.36;99.08;96259.47;5010506;28;20659;-71
2022/05/11 09:07:16;;;;;;;9.30;3.85;;;;;;;20.29;97.11;96270.00;5009493;28;20062;-73
2022/05/11 09:09:44;;;;;;;5.38;3.35;;;;;;;20.18;95.62;96264.06;4996022;28;20481;-73
2022/05/11 09:12:11;;;;;;;13.13;3.85;;;;;;;20.18;97.90;96255.94;5009988;28;20504;-72
2022/05/11 09:14:53;;;;;;;7.72;3.80;;;;;;;20.23;98.11;96253.06;5009288;28;20077;-72
2022/05/11 09:17:32;;;;;;;6.10;3.13;;;;;;;20.45;99.44;96262.25;4990264;28;20033;-72
2022/05/11 09:20:13;;;;;;;9.40;4.30;;;;;;;20.48;96.94;96248.84;5008488;28;20072;-73
2022/05/11 09:23:03;;;;;;;6.57;3.83;;;;;;;20.68;95.31;96239.28;5008285;28;20615;-72
2022/05/11 09:25:31;;;;;;;8.25;3.45;;;;;;;20.61;92.98;96249.81;5007642;28;20046;-73
2022/05/11 09:28:20;;;;;;;4.72;3.35;;;;;;;20.80;94.18;96249.53;5008869;28;20420;-72
2022/05/11 09:30:55;;;;;;;11.10;3.90;;;;;;;20.88;92.41;96239.78;5010283;28;20061;-72
2022/05/11 09:33:24;;;;;;;10.02;4.22;;;;;;;20.99;92.39;96230.16;5009640;28;20087;-72
2022/05/11 09:35:50;;;;;;;7.15;3.78;;;;;;;21.09;92.42;96235.31;5009584;28;20515;-72
2022/05/11 09:38:19;;;;;;;7.65;3.67;;;;;;;21.29;91.40;96245.53;4992101;28;20137;-71
2022/05/11 09:41:21;;;;;;;8.70;3.60;;;;;;;21.36;90.03;96245.84;5008375;28;20967;-71
2022/05/11 09:43:56;;;;;;;5.75;3.40;;;;;;;21.33;87.57;96245.72;4969646;28;20082;-72
2022/05/11 09:46:33;;;;;;;9.40;3.55;;;;;;;21.32;85.36;96244.91;5006769;28;20540;-72
2022/05/11 09:49:25;;;;;;;6.78;3.40;;;;;;;21.58;85.82;96242.13;5008916;28;20049;-73
2022/05/11 09:51:55;;;;;;;7.18;3.25;;;;;;;21.59;81.84;96249.19;5008004;28;20112;-72
2022/05/11 09:54:48;;;;;;;4.95;2.88;;;;;;;21.52;83.77;96240.69;5007941;28;20438;-73
2022/05/11 09:57:27;;;;;;;10.88;3.30;;;;;;;21.64;84.75;96229.97;5008691;28;20105;-72
2022/05/11 10:00:13;;;;;;;7.30;3.30;;;;;;;21.93;82.52;96244.75;5007879;28;20179;-72
2022/05/11 10:02:43;;;;;;;8.13;2.95;;;;;;;21.79;80.48;96246.88;5008247;28;20394;-72
2022/05/11 10:05:19;;;;;;;9.93;3.47;;;;;;;21.67;83.54;96236.66;5010059;28;20433;-72
2022/05/11 10:07:53;;;;;;;8.82;3.63;;;;;;;22.03;81.66;96225.34;5012245;28;20480;-72
2022/05/11 10:10:32;;;;;;;9.30;3.85;;;;;;;21.97;83.86;96232.09;5011891;28;20056;-72
2022/05/11 10:13:15;;;;;;;11.60;3.50;;;;;;;21.97;82.72;96230.16;5008812;28;20116;-72
2022/05/11 10:24:32;;;;;;;12.20;3.38;;;;;;;22.86;76.54;96223.91;5010333;28;21327;-72
2022/05/11 10:27:12;;;;;;;10.65;3.35;;;;;;;22.94;74.94;96217.59;5007709;28;20064;-73
2022/05/11 10:29:48;;;;;;;6.35;3.20;;;;;;;23.15;74.52;96209.38;4999926;28;20041;-72
2022/05/11 10:32:33;;;;;;;8.27;3.50;;;;;;;22.95;74.49;96213.72;5007154;28;20053;-72
2022/05/11 10:35:17;;;;;;;8.30;3.63;;;;;;;23.28;69.98;96213.78;4313881;28;10000362;-72
2022/05/11 10:38:01;;;;;;;6.72;2.60;;;;;;;23.32;67.08;96209.22;4981987;28;20104;-72
2022/05/11 10:40:46;;;;;;;8.13;2.65;;;;;;;22.82;68.88;96193.75;5001880;28;20168;-72
2022/05/11 10:43:32;;;;;;;6.93;2.90;;;;;;;22.83;67.47;96246.38;5006688;28;20332;-73
2022/05/11 10:46:11;;;;;;;13.50;3.58;;;;;;;23.16;72.07;96192.69;5004863;28;20464;-72
2022/05/11 10:48:53;;;;;;;7.32;3.85;;;;;;;23.65;67.40;96184.63;5010392;28;20053;-72
2022/05/11 10:51:34;;;;;;;9.15;3.42;;;;;;;23.89;65.94;96178.41;5006115;28;20447;-72
2022/05/11 10:54:19;;;;;;;12.88;3.70;;;;;;;24.01;67.73;96180.38;5004936;28;20157;-73
2022/05/11 10:57:06;;;;;;;6.78;2.63;;;;;;;24.21;60.96;96178.66;5004341;28;20230;-73
2022/05/11 10:59:46;;;;;;;10.20;3.65;;;;;;;24.55;62.00;96182.84;4993528;28;20060;-72
2022/05/11 11:02:41;;;;;;;7.38;3.60;;;;;;;25.56;52.64;96190.81;4998947;28;20439;-73
2022/05/11 11:05:15;;;;;;;9.38;3.72;;;;;;;25.74;54.20;96174.88;4995295;28;20046;-72
2022/05/11 11:08:17;;;;;;;12.35;4.03;;;;;;;26.92;48.58;96164.66;5006834;28;20068;-73
2022/05/11 11:10:52;;;;;;;10.75;3.35;;;;;;;25.87;48.31;96181.84;5006785;28;20046;-72
2022/05/11 11:13:46;;;;;;;6.78;2.65;;;;;;;26.65;47.94;96163.72;5008940;28;20038;-72
2022/05/11 11:16:13;;;;;;;4.72;3.03;;;;;;;28.17;42.87;96161.47;5002655;28;20041;-72
2022/05/11 11:18:44;;;;;;;10.60;3.97;;;;;;;28.92;39.95;96163.38;5008199;28;20400;-72
2022/05/11 11:21:11;;;;;;;10.82;3.80;;;;;;;27.85;42.87;96161.75;5007244;28;20045;-72
2022/05/11 11:23:39;;;;;;;10.18;3.92;;;;;;;30.85;35.62;96157.66;5007494;28;20045;-72
2022/05/11 11:26:09;;;;;;;6.60;3.40;;;;;;;32.36;32.06;96151.28;5006276;28;20763;-72
2022/05/11 11:28:54;;;;;;;5.65;3.47;;;;;;;31.71;33.08;96142.16;5007241;28;20050;-72
2022/05/11 11:31:25;;;;;;;6.10;3.15;;;;;;;32.40;31.08;96136.25;4993600;28;20062;-72
2022/05/11 11:33:56;;;;;;;7.75;3.28;;;;;;;33.15;29.72;96140.78;5005440;28;20168;-72
2022/05/11 11:36:27;;;;;;;9.63;3.22;;;;;;;31.54;31.22;96132.66;5005456;28;20038;-72
2022/05/11 11:38:56;;;;;;;5.70;3.20;;;;;;;31.29;31.73;96129.84;5007847;28;20037;-72
2022/05/11 11:41:30;;;;;;;11.65;3.38;;;;;;;33.11;29.59;96121.41;5005994;28;20037;-73
2022/05/11 11:44:02;;;;;;;9.23;3.03;;;;;;;33.38;28.92;96118.91;5009804;28;20096;-72
2022/05/11 11:46:32;;;;;;;14.00;2.90;;;;;;;33.64;27.18;96122.34;5011735;28;20546;-72
2022/05/11 11:49:03;;;;;;;9.60;3.35;;;;;;;35.79;25.82;96121.59;5012115;28;20507;-72
2022/05/11 11:51:53;;;;;;;10.05;3.28;;;;;;;32.61;27.96;96115.25;5009297;28;20037;-73
2022/05/11 11:54:37;;;;;;;8.63;3.50;;;;;;;34.30;26.26;96114.66;4995469;28;20053;-73
2022/05/11 11:57:22;;;;;;;10.63;3.28;;;;;;;32.66;27.66;96159.13;4993199;28;20682;-74
2022/05/11 12:00:00;;;;;;;9.25;3.25;;;;;;;32.25;28.79;96134.66;5010745;28;20080;-74
2022/05/11 12:02:36;;;;;;;9.43;3.80;;;;;;;35.19;25.70;96118.47;5014784;28;20049;-74
2022/05/11 12:05:04;;;;;;;12.95;3.45;;;;;;;34.48;26.05;96119.28;5011951;28;20037;-74
2022/05/11 12:16:08;;;;;;;8.75;3.28;;;;;;;33.23;27.66;96111.84;5013211;28;20100;-74
2022/05/11 12:18:39;;;;;;;13.13;2.80;;;;;;;31.83;28.59;96124.44;5015421;28;20042;-74